Hlavní strana
METAR-TAF:

METAR-TAF

Letiště :

Letiště Innsbruck

Innsbruck, Rakousko

zeměpisná šířka: 47-16N, zeměpisná délka: 011-21E, výška: 581 m

Aktuální stav počasí

Zpráva byla vytvořena před 17 minutami, v 06:50 UTC
Západní vítr 5 kt
Teplota -9°C
Vlhkost vzduchu 85%
Tlak 1016 hPa
Viditelnost 10 km a více
Skoro jasno ve výšce 3000 ft

METAR: LOWI 130650Z 28005KT 9999 FEW030 M09/M11 Q1016 NOSIG

Čas: 08:07 (07:07 UTC)

Předpověď počasí

Zpráva byla vytvořena před 1 hodinou a 52 minutami, v 05:15 UTC
Předpověď platná od 13 v 06 UTC do 14 v 06 UTC
Západní vítr 5 kt
Viditelnost 10 km a více
Skoro jasno ve výšce 3000 ft
Dočasný
od 13 v 09 UTC do 13 v 15 UTC
Východní vítr 7 kt

TAF: LOWI 130515Z 1306/1406 27005KT 9999 FEW030 TXM01/1313Z TNM08/1306Z TEMPO 1309/1315 09007KT

Stav a předpovědi počasí z více než 4 000 letišť (zprávy METAR a TAF).

Červené a žluté tečky na mapě představují dostupné meteorologické stanice.

Když kurzor umístíte na tečku, zobrazí se název stanice.

Pak kliknutím zobrazíte stav a předpověď počasí.

Chcete-li změnit mapu, kliknutím na zelené tlačítko se znaménkem +mapu přiblížíte, kliknutím na zelené tlačítko se znaménkem – mapu oddálíte a kliknutím na zelené šipky přejdete na sousední mapy.


METAR-TAF: